TAF and METAR

Decoding for American and Canadian METARs and TAFs is not fully implemented.

Could not understand the following METAR

KHHV 191510Z AUTO 08026KT 10SM FEW032 FEW085 50/48 A3021 RMK A01
No TAF available for Alaminos Canyon
Alaminos Canyon in United States of America at 25m

Latest 5 airports